Time,TemperatureF,DewpointF,PressureIn,WindDirection,WindDirectionDegrees,WindSpeedMPH,WindSpeedGustMPH,Humidity,HourlyPrecipIn,Conditions,Clouds,dailyrainin,SoftwareType,DateUTC
2013-11-06 00:01:00,31.9,30.6,30.24,East,101,0.0,0.0,95,0.00,,---,0.00,VWS V14.00,2013-11-06 08:01:00,
2013-11-06 00:06:00,31.9,30.6,30.24,East,101,0.0,0.0,95,0.00,,---,0.00,VWS V14.00,2013-11-06 08:06:00,
2013-11-06 00:11:00,31.9,30.6,30.24,East,101,0.0,0.0,95,0.00,,---,0.00,VWS V14.00,2013-11-06 08:11:00,
2013-11-06 00:16:00,31.9,30.6,30.24,East,101,0.0,0.0,95,0.00,,---,0.00,VWS V14.00,2013-11-06 08:16:00,
2013-11-06 00:21:00,31.9,30.6,30.24,East,101,0.0,0.0,95,0.00,,---,0.00,VWS V14.00,2013-11-06 08:21:00,
2013-11-06 00:26:00,31.9,30.6,30.24,East,101,0.0,0.0,95,0.00,,---,0.00,VWS V14.00,2013-11-06 08:26:00,
2013-11-06 00:31:00,31.8,30.5,30.25,East,101,0.0,0.0,95,0.00,,---,0.00,VWS V14.00,2013-11-06 08:31:00,
2013-11-06 00:36:00,31.9,30.6,30.25,East,101,0.0,0.0,95,0.00,,---,0.00,VWS V14.00,2013-11-06 08:36:00,
2013-11-06 00:41:00,31.8,30.5,30.24,East,101,0.0,0.0,95,0.00,,---,0.00,VWS V14.00,2013-11-06 08:41:00,
2013-11-06 00:46:00,31.9,30.6,30.25,East,101,0.0,0.0,95,0.00,,---,0.00,VWS V14.00,2013-11-06 08:46:00,
2013-11-06 00:51:00,31.9,30.6,30.25,East,101,0.0,0.0,95,0.00,,---,0.00,VWS V14.00,2013-11-06 08:51:00,
2013-11-06 00:56:00,32.0,30.7,30.25,East,101,0.0,0.0,95,0.00,,---,0.00,VWS V14.00,2013-11-06 08:56:00,
2013-11-06 01:01:00,32.1,30.8,30.25,East,101,0.0,0.0,95,0.00,,---,0.00,VWS V14.00,2013-11-06 09:01:00,
2013-11-06 01:06:00,32.1,30.8,30.25,East,101,0.0,0.0,95,0.00,,---,0.00,VWS V14.00,2013-11-06 09:06:00,
2013-11-06 01:11:00,32.2,30.9,30.26,East,101,0.0,0.0,95,0.00,,---,0.00,VWS V14.00,2013-11-06 09:11:00,
2013-11-06 01:16:00,32.2,30.9,30.26,East,101,0.0,0.0,95,0.00,,---,0.00,VWS V14.00,2013-11-06 09:16:00,
2013-11-06 01:21:00,32.1,30.8,30.26,East,101,0.0,0.0,95,0.00,,---,0.00,VWS V14.00,2013-11-06 09:21:00,
2013-11-06 01:26:00,32.0,30.7,30.26,East,101,0.0,0.0,95,0.00,,---,0.00,VWS V14.00,2013-11-06 09:26:00,
2013-11-06 01:31:00,31.9,30.6,30.26,East,101,0.0,0.0,95,0.00,,---,0.00,VWS V14.00,2013-11-06 09:31:00,
2013-11-06 01:36:00,31.7,30.4,30.27,East,101,0.0,0.0,95,0.00,,---,0.00,VWS V14.00,2013-11-06 09:36:00,
2013-11-06 01:41:00,31.7,30.4,30.27,East,101,0.0,0.0,95,0.00,,---,0.00,VWS V14.00,2013-11-06 09:41:00,
2013-11-06 01:46:00,31.7,30.4,30.27,East,101,0.0,0.0,95,0.00,,---,0.00,VWS V14.00,2013-11-06 09:46:00,
2013-11-06 01:51:00,31.7,30.4,30.28,East,101,0.0,0.0,95,0.00,,---,0.00,VWS V14.00,2013-11-06 09:51:00,
2013-11-06 01:56:00,31.7,30.4,30.28,East,101,0.0,0.0,95,0.00,,---,0.00,VWS V14.00,2013-11-06 09:56:00,
2013-11-06 02:01:00,31.8,30.5,30.28,East,101,0.0,1.0,95,0.00,,---,0.00,VWS V14.00,2013-11-06 10:01:00,
2013-11-06 02:06:00,31.8,30.5,30.28,East,101,0.0,0.0,95,0.00,,---,0.00,VWS V14.00,2013-11-06 10:06:00,
2013-11-06 02:11:00,31.9,30.6,30.28,East,101,0.0,0.0,95,0.00,,---,0.00,VWS V14.00,2013-11-06 10:11:00,
2013-11-06 02:16:00,31.9,30.6,30.28,East,101,0.0,0.0,95,0.00,,---,0.00,VWS V14.00,2013-11-06 10:16:00,
2013-11-06 02:21:00,32.0,30.7,30.28,East,101,0.0,0.0,95,0.00,,---,0.00,VWS V14.00,2013-11-06 10:21:00,
2013-11-06 02:26:00,32.0,30.7,30.28,East,101,0.0,0.0,95,0.00,,---,0.00,VWS V14.00,2013-11-06 10:26:00,
2013-11-06 02:31:00,32.0,30.7,30.28,East,101,0.0,0.0,95,0.00,,---,0.00,VWS V14.00,2013-11-06 10:31:00,
2013-11-06 02:36:00,32.1,30.8,30.29,East,101,0.0,0.0,95,0.00,,---,0.00,VWS V14.00,2013-11-06 10:36:00,
2013-11-06 02:41:00,32.1,30.8,30.29,East,101,0.0,0.0,95,0.00,,---,0.00,VWS V14.00,2013-11-06 10:41:00,
2013-11-06 02:46:00,31.9,30.6,30.29,East,101,0.0,1.0,95,0.00,,---,0.00,VWS V14.00,2013-11-06 10:46:00,
2013-11-06 02:51:00,31.8,30.5,30.29,East,101,0.0,2.0,95,0.00,,---,0.00,VWS V14.00,2013-11-06 10:51:00,
2013-11-06 02:56:00,31.8,30.5,30.29,East,101,0.0,0.0,95,0.00,,---,0.00,VWS V14.00,2013-11-06 10:56:00,
2013-11-06 03:01:00,31.9,30.9,30.29,East,101,0.0,0.0,96,0.00,,---,0.00,VWS V14.00,2013-11-06 11:01:00,
2013-11-06 03:06:00,31.9,30.9,30.29,East,101,0.0,0.0,96,0.00,,---,0.00,VWS V14.00,2013-11-06 11:06:00,
2013-11-06 03:11:00,31.9,30.9,30.29,East,101,0.0,0.0,96,0.00,,---,0.00,VWS V14.00,2013-11-06 11:11:00,
2013-11-06 03:16:00,32.0,31.0,30.29,East,101,0.0,0.0,96,0.00,,---,0.00,VWS V14.00,2013-11-06 11:16:00,
2013-11-06 03:21:00,32.0,31.0,30.29,East,101,0.0,0.0,96,0.00,,---,0.00,VWS V14.00,2013-11-06 11:21:00,
2013-11-06 03:26:00,32.0,31.0,30.29,East,101,0.0,0.0,96,0.00,,---,0.00,VWS V14.00,2013-11-06 11:26:00,
2013-11-06 03:31:00,31.9,30.6,30.29,East,101,0.0,0.0,95,0.00,,---,0.00,VWS V14.00,2013-11-06 11:31:00,
2013-11-06 03:36:00,31.9,30.6,30.29,East,101,0.0,0.0,95,0.00,,---,0.00,VWS V14.00,2013-11-06 11:36:00,
2013-11-06 03:41:00,31.9,30.9,30.30,East,101,0.0,0.0,96,0.00,,---,0.00,VWS V14.00,2013-11-06 11:41:00,
2013-11-06 03:46:00,32.0,31.0,30.30,East,101,0.0,0.0,96,0.00,,---,0.00,VWS V14.00,2013-11-06 11:46:00,
2013-11-06 03:51:00,32.0,31.0,30.30,East,101,0.0,0.0,96,0.00,,---,0.00,VWS V14.00,2013-11-06 11:51:00,
2013-11-06 03:56:00,31.9,30.9,30.30,East,101,0.0,0.0,96,0.00,,---,0.00,VWS V14.00,2013-11-06 11:56:00,
2013-11-06 04:01:00,31.7,30.7,30.31,East,101,0.0,0.0,96,0.00,,---,0.00,VWS V14.00,2013-11-06 12:01:00,
2013-11-06 04:06:00,31.6,30.6,30.31,East,101,0.0,0.0,96,0.00,,---,0.00,VWS V14.00,2013-11-06 12:06:00,
2013-11-06 04:11:00,31.5,30.5,30.31,East,101,0.0,0.0,96,0.00,,---,0.00,VWS V14.00,2013-11-06 12:11:00,
2013-11-06 04:16:00,31.5,30.5,30.31,East,101,0.0,0.0,96,0.00,,---,0.00,VWS V14.00,2013-11-06 12:16:00,
2013-11-06 04:21:00,31.6,30.6,30.31,East,101,0.0,0.0,96,0.00,,---,0.00,VWS V14.00,2013-11-06 12:21:00,
2013-11-06 04:26:00,31.6,30.6,30.31,East,101,0.0,0.0,96,0.00,,---,0.00,VWS V14.00,2013-11-06 12:26:00,
2013-11-06 04:31:00,31.6,30.6,30.31,East,101,0.0,0.0,96,0.00,,---,0.00,VWS V14.00,2013-11-06 12:31:00,
2013-11-06 04:36:00,31.7,30.7,30.32,East,101,0.0,0.0,96,0.00,,---,0.00,VWS V14.00,2013-11-06 12:36:00,
2013-11-06 04:41:00,31.7,30.7,30.32,East,101,0.0,0.0,96,0.00,,---,0.00,VWS V14.00,2013-11-06 12:41:00,
2013-11-06 04:46:00,31.7,30.7,30.32,East,101,0.0,0.0,96,0.00,,---,0.00,VWS V14.00,2013-11-06 12:46:00,
2013-11-06 04:51:00,31.7,30.7,30.32,East,101,0.0,0.0,96,0.00,,---,0.00,VWS V14.00,2013-11-06 12:51:00,
2013-11-06 04:56:00,31.7,30.7,30.32,East,101,0.0,0.0,96,0.00,,---,0.00,VWS V14.00,2013-11-06 12:56:00,
2013-11-06 05:01:00,31.6,30.6,30.32,East,101,0.0,1.0,96,0.00,,---,0.00,VWS V14.00,2013-11-06 13:01:00,
2013-11-06 05:06:00,31.6,30.6,30.32,East,101,0.0,0.0,96,0.00,,---,0.00,VWS V14.00,2013-11-06 13:06:00,
2013-11-06 05:11:00,31.6,30.6,30.32,East,101,0.0,0.0,96,0.00,,---,0.00,VWS V14.00,2013-11-06 13:11:00,
2013-11-06 05:16:00,31.7,30.7,30.33,East,101,0.0,0.0,96,0.00,,---,0.00,VWS V14.00,2013-11-06 13:16:00,
2013-11-06 05:21:00,31.7,30.7,30.32,East,101,0.0,0.0,96,0.00,,---,0.00,VWS V14.00,2013-11-06 13:21:00,
2013-11-06 05:26:00,31.7,30.7,30.33,East,101,0.0,0.0,96,0.00,,---,0.00,VWS V14.00,2013-11-06 13:26:00,
2013-11-06 05:31:00,31.8,30.8,30.33,East,101,0.0,0.0,96,0.00,,---,0.00,VWS V14.00,2013-11-06 13:31:00,
2013-11-06 05:36:00,31.8,30.8,30.32,East,101,0.0,0.0,96,0.00,,---,0.00,VWS V14.00,2013-11-06 13:36:00,
2013-11-06 05:41:00,31.9,30.9,30.33,East,101,0.0,0.0,96,0.00,,---,0.00,VWS V14.00,2013-11-06 13:41:00,
2013-11-06 05:46:00,31.9,30.9,30.33,East,101,0.0,0.0,96,0.00,,---,0.00,VWS V14.00,2013-11-06 13:46:00,
2013-11-06 05:51:00,31.9,30.9,30.33,East,101,0.0,0.0,96,0.00,,---,0.00,VWS V14.00,2013-11-06 13:51:00,
2013-11-06 05:56:00,32.0,31.0,30.33,East,101,0.0,0.0,96,0.00,,---,0.00,VWS V14.00,2013-11-06 13:56:00,
2013-11-06 06:01:00,31.9,30.9,30.34,East,101,0.0,0.0,96,0.00,,---,0.00,VWS V14.00,2013-11-06 14:01:00,
2013-11-06 06:06:00,31.9,30.9,30.33,East,101,0.0,0.0,96,0.00,,---,0.00,VWS V14.00,2013-11-06 14:06:00,
2013-11-06 06:11:00,31.9,30.9,30.34,East,101,0.0,0.0,96,0.00,,---,0.00,VWS V14.00,2013-11-06 14:11:00,
2013-11-06 06:16:00,31.9,30.9,30.34,East,101,0.0,0.0,96,0.00,,---,0.00,VWS V14.00,2013-11-06 14:16:00,
2013-11-06 06:21:00,31.9,30.9,30.34,East,101,0.0,0.0,96,0.00,,---,0.00,VWS V14.00,2013-11-06 14:21:00,
2013-11-06 06:26:00,32.0,31.0,30.34,East,101,0.0,0.0,96,0.00,,---,0.00,VWS V14.00,2013-11-06 14:26:00,
2013-11-06 06:31:00,32.0,31.0,30.34,East,101,0.0,0.0,96,0.00,,---,0.00,VWS V14.00,2013-11-06 14:31:00,
2013-11-06 06:36:00,32.0,31.0,30.35,East,101,0.0,0.0,96,0.00,,---,0.00,VWS V14.00,2013-11-06 14:36:00,
2013-11-06 06:41:00,32.0,31.0,30.35,East,101,0.0,0.0,96,0.00,,---,0.00,VWS V14.00,2013-11-06 14:41:00,
2013-11-06 06:46:00,32.0,31.0,30.35,East,101,0.0,0.0,96,0.00,,---,0.00,VWS V14.00,2013-11-06 14:46:00,
2013-11-06 06:51:00,32.0,31.0,30.35,East,101,0.0,0.0,96,0.00,,---,0.00,VWS V14.00,2013-11-06 14:51:00,
2013-11-06 06:56:00,32.0,31.0,30.35,East,101,0.0,0.0,96,0.00,,---,0.00,VWS V14.00,2013-11-06 14:56:00,
2013-11-06 07:01:00,32.0,31.0,30.36,East,101,0.0,0.0,96,0.00,,---,0.00,VWS V14.00,2013-11-06 15:01:00,
2013-11-06 07:06:00,31.9,30.9,30.36,East,101,0.0,0.0,96,0.00,,---,0.00,VWS V14.00,2013-11-06 15:06:00,
2013-11-06 07:11:00,31.8,30.8,30.36,East,101,0.0,0.0,96,0.00,,---,0.00,VWS V14.00,2013-11-06 15:11:00,
2013-11-06 07:16:00,31.8,30.8,30.37,East,101,0.0,0.0,96,0.00,,---,0.00,VWS V14.00,2013-11-06 15:16:00,
2013-11-06 07:21:00,31.8,30.8,30.37,East,101,0.0,2.0,96,0.00,,---,0.00,VWS V14.00,2013-11-06 15:21:00,
2013-11-06 07:26:00,31.8,30.8,30.38,East,101,0.0,0.0,96,0.00,,---,0.00,VWS V14.00,2013-11-06 15:26:00,
2013-11-06 07:31:00,31.8,30.8,30.38,East,101,0.0,0.0,96,0.00,,---,0.00,VWS V14.00,2013-11-06 15:31:00,
2013-11-06 07:36:00,31.9,30.9,30.38,East,101,0.0,0.0,96,0.00,,---,0.00,VWS V14.00,2013-11-06 15:36:00,
2013-11-06 07:41:00,32.0,31.0,30.39,East,101,0.0,0.0,96,0.00,,---,0.00,VWS V14.00,2013-11-06 15:41:00,
2013-11-06 07:46:00,31.9,30.9,30.39,East,101,0.0,0.0,96,0.00,,---,0.00,VWS V14.00,2013-11-06 15:46:00,
2013-11-06 07:51:00,31.9,30.9,30.39,East,101,0.0,0.0,96,0.00,,---,0.00,VWS V14.00,2013-11-06 15:51:00,
2013-11-06 07:56:00,31.9,30.9,30.39,East,101,0.0,0.0,96,0.00,,---,0.00,VWS V14.00,2013-11-06 15:56:00,
2013-11-06 08:01:00,31.9,30.9,30.40,East,101,0.0,0.0,96,0.00,,---,0.00,VWS V14.00,2013-11-06 16:01:00,
2013-11-06 08:06:00,32.0,31.0,30.39,East,101,0.0,0.0,96,0.00,,---,0.00,VWS V14.00,2013-11-06 16:06:00,
2013-11-06 08:11:00,32.1,31.1,30.39,East,101,0.0,0.0,96,0.00,,---,0.00,VWS V14.00,2013-11-06 16:11:00,
2013-11-06 08:16:00,32.2,31.2,30.39,East,101,0.0,0.0,96,0.00,,---,0.00,VWS V14.00,2013-11-06 16:16:00,
2013-11-06 08:21:00,32.3,31.3,30.39,East,101,0.0,0.0,96,0.00,,---,0.00,VWS V14.00,2013-11-06 16:21:00,
2013-11-06 08:26:00,32.4,31.4,30.39,East,101,0.0,0.0,96,0.00,,---,0.00,VWS V14.00,2013-11-06 16:26:00,
2013-11-06 08:30:00,32.5,31.5,30.40,East,101,0.0,0.0,96,0.00,,---,0.00,VWS V14.00,2013-11-06 16:30:00,
2013-11-06 08:35:00,32.6,31.6,30.40,East,101,0.0,0.0,96,0.00,,---,0.00,VWS V14.00,2013-11-06 16:35:00,
2013-11-06 08:40:00,32.6,31.6,30.40,East,101,0.0,0.0,96,0.00,,---,0.00,VWS V14.00,2013-11-06 16:40:00,
2013-11-06 08:45:00,32.7,31.7,30.40,East,101,0.0,0.0,96,0.00,,---,0.00,VWS V14.00,2013-11-06 16:45:00,
2013-11-06 08:50:00,32.7,31.7,30.40,East,101,0.0,1.0,96,0.00,,---,0.00,VWS V14.00,2013-11-06 16:50:00,
2013-11-06 08:55:00,32.8,31.8,30.40,East,101,0.0,1.0,96,0.00,,---,0.00,VWS V14.00,2013-11-06 16:55:00,
2013-11-06 09:00:00,32.7,31.7,30.40,East,101,0.0,0.0,96,0.00,,---,0.00,VWS V14.00,2013-11-06 17:00:00,
2013-11-06 09:05:00,32.8,31.8,30.41,East,101,0.0,0.0,96,0.00,,---,0.00,VWS V14.00,2013-11-06 17:05:00,
2013-11-06 09:10:00,33.0,32.0,30.41,East,101,0.0,0.0,96,0.00,,---,0.00,VWS V14.00,2013-11-06 17:10:00,
2013-11-06 09:16:00,33.0,32.0,30.41,East,101,0.0,0.0,96,0.00,,---,0.00,VWS V14.00,2013-11-06 17:16:00,
2013-11-06 09:21:00,33.0,32.0,30.40,East,101,0.0,0.0,96,0.00,,---,0.00,VWS V14.00,2013-11-06 17:21:00,
2013-11-06 09:26:00,33.0,32.0,30.40,East,101,0.0,0.0,96,0.00,,---,0.00,VWS V14.00,2013-11-06 17:26:00,
2013-11-06 09:31:00,33.0,32.0,30.40,East,101,0.0,0.0,96,0.00,,---,0.00,VWS V14.00,2013-11-06 17:31:00,
2013-11-06 09:36:00,33.1,32.1,30.41,East,101,0.0,0.0,96,0.00,,---,0.00,VWS V14.00,2013-11-06 17:36:00,
2013-11-06 09:41:00,33.2,32.2,30.41,East,101,0.0,0.0,96,0.00,,---,0.00,VWS V14.00,2013-11-06 17:41:00,
2013-11-06 09:46:00,33.3,32.3,30.41,East,101,0.0,2.0,96,0.00,,---,0.00,VWS V14.00,2013-11-06 17:46:00,
2013-11-06 09:51:00,33.3,32.3,30.41,East,101,0.0,1.0,96,0.00,,---,0.00,VWS V14.00,2013-11-06 17:51:00,
2013-11-06 09:56:00,33.2,32.2,30.41,East,101,0.0,1.0,96,0.00,,---,0.00,VWS V14.00,2013-11-06 17:56:00,
2013-11-06 10:01:00,33.3,32.3,30.41,East,101,0.0,0.0,96,0.00,,---,0.00,VWS V14.00,2013-11-06 18:01:00,
2013-11-06 10:06:00,33.5,32.2,30.40,East,101,0.0,0.0,95,0.00,,---,0.00,VWS V14.00,2013-11-06 18:06:00,
2013-11-06 10:11:00,33.5,32.2,30.41,East,101,0.0,1.0,95,0.00,,---,0.00,VWS V14.00,2013-11-06 18:11:00,
2013-11-06 10:16:00,33.5,32.2,30.41,East,101,0.0,0.0,95,0.00,,---,0.00,VWS V14.00,2013-11-06 18:16:00,
2013-11-06 10:21:00,33.5,32.0,30.41,East,101,0.0,0.0,94,0.00,,---,0.00,VWS V14.00,2013-11-06 18:21:00,
2013-11-06 10:26:00,33.5,32.2,30.41,East,101,0.0,0.0,95,0.00,,---,0.00,VWS V14.00,2013-11-06 18:26:00,
2013-11-06 10:31:00,33.7,32.2,30.41,East,101,0.0,0.0,94,0.00,,---,0.00,VWS V14.00,2013-11-06 18:31:00,
2013-11-06 10:36:00,33.8,32.3,30.41,East,101,0.0,0.0,94,0.00,,---,0.00,VWS V14.00,2013-11-06 18:36:00,
2013-11-06 10:41:00,34.0,32.5,30.42,East,101,0.0,0.0,94,0.00,,---,0.00,VWS V14.00,2013-11-06 18:41:00,
2013-11-06 10:46:00,34.2,32.7,30.41,East,101,0.0,0.0,94,0.00,,---,0.00,VWS V14.00,2013-11-06 18:46:00,
2013-11-06 10:51:00,34.3,32.5,30.41,East,101,0.0,0.0,93,0.00,,---,0.00,VWS V14.00,2013-11-06 18:51:00,
2013-11-06 10:56:00,34.3,32.2,30.41,East,101,0.0,1.0,92,0.00,,---,0.00,VWS V14.00,2013-11-06 18:56:00,
2013-11-06 11:01:00,34.3,32.0,30.42,East,101,0.0,1.0,91,0.00,,---,0.00,VWS V14.00,2013-11-06 19:01:00,
2013-11-06 11:06:00,34.2,31.9,30.42,East,101,0.0,1.0,91,0.00,,---,0.00,VWS V14.00,2013-11-06 19:06:00,
2013-11-06 11:10:00,34.3,31.7,30.42,East,101,0.0,0.0,90,0.00,,---,0.00,VWS V14.00,2013-11-06 19:10:00,
2013-11-06 11:15:00,34.5,32.2,30.41,East,101,0.0,0.0,91,0.00,,---,0.00,VWS V14.00,2013-11-06 19:15:00,
2013-11-06 11:20:00,34.7,32.1,30.41,East,101,0.0,0.0,90,0.00,,---,0.00,VWS V14.00,2013-11-06 19:20:00,
2013-11-06 11:25:00,34.8,32.2,30.41,East,101,0.0,1.0,90,0.00,,---,0.00,VWS V14.00,2013-11-06 19:25:00,
2013-11-06 11:30:00,34.7,31.8,30.41,East,101,0.0,2.0,89,0.00,,---,0.00,VWS V14.00,2013-11-06 19:30:00,
2013-11-06 11:35:00,34.8,31.6,30.41,East,101,0.0,1.0,88,0.00,,---,0.00,VWS V14.00,2013-11-06 19:35:00,
2013-11-06 11:40:00,34.9,32.0,30.41,East,101,0.0,0.0,89,0.00,,---,0.00,VWS V14.00,2013-11-06 19:40:00,
2013-11-06 11:45:00,35.2,32.3,30.41,East,101,0.0,0.0,89,0.00,,---,0.00,VWS V14.00,2013-11-06 19:45:00,
2013-11-06 11:50:00,35.3,32.1,30.41,East,101,0.0,2.0,88,0.00,,---,0.00,VWS V14.00,2013-11-06 19:50:00,
2013-11-06 11:55:00,35.5,32.3,30.41,East,101,0.0,1.0,88,0.00,,---,0.00,VWS V14.00,2013-11-06 19:55:00,
2013-11-06 12:00:00,35.5,32.0,30.40,East,101,0.0,0.0,87,0.00,,---,0.00,VWS V14.00,2013-11-06 20:00:00,
2013-11-06 12:05:00,35.6,32.1,30.41,East,101,0.0,1.0,87,0.00,,---,0.00,VWS V14.00,2013-11-06 20:05:00,
2013-11-06 12:10:00,35.6,31.8,30.41,East,101,0.0,0.0,86,0.00,,---,0.00,VWS V14.00,2013-11-06 20:10:00,
2013-11-06 12:15:00,35.8,32.0,30.41,East,101,1.0,1.0,86,0.00,,---,0.00,VWS V14.00,2013-11-06 20:15:00,
2013-11-06 12:20:00,35.8,31.7,30.41,East,101,0.0,1.0,85,0.00,,---,0.00,VWS V14.00,2013-11-06 20:20:00,
2013-11-06 12:25:00,35.8,31.7,30.40,East,101,0.0,3.0,85,0.00,,---,0.00,VWS V14.00,2013-11-06 20:25:00,
2013-11-06 12:30:00,35.9,31.5,30.40,East,101,2.0,3.0,84,0.00,,---,0.00,VWS V14.00,2013-11-06 20:30:00,
2013-11-06 12:35:00,35.9,31.8,30.40,East,101,0.0,1.0,85,0.00,,---,0.00,VWS V14.00,2013-11-06 20:35:00,
2013-11-06 12:40:00,35.9,31.8,30.40,East,101,0.0,0.0,85,0.00,,---,0.00,VWS V14.00,2013-11-06 20:40:00,
2013-11-06 12:45:00,35.9,32.1,30.40,East,101,0.0,0.0,86,0.00,,---,0.00,VWS V14.00,2013-11-06 20:45:00,
2013-11-06 12:50:00,36.0,31.9,30.40,East,101,2.0,2.0,85,0.00,,---,0.00,VWS V14.00,2013-11-06 20:50:00,
2013-11-06 12:55:00,35.9,31.5,30.40,East,101,0.0,2.0,84,0.00,,---,0.00,VWS V14.00,2013-11-06 20:55:00,
2013-11-06 13:00:00,36.0,31.6,30.40,East,101,0.0,1.0,84,0.00,,---,0.00,VWS V14.00,2013-11-06 21:00:00,
2013-11-06 13:05:00,36.0,31.4,30.40,East,101,0.0,0.0,83,0.00,,---,0.00,VWS V14.00,2013-11-06 21:05:00,
2013-11-06 13:10:00,35.9,31.5,30.40,East,101,0.0,0.0,84,0.00,,---,0.00,VWS V14.00,2013-11-06 21:10:00,
2013-11-06 13:15:00,36.0,31.9,30.40,East,101,0.0,0.0,85,0.00,,---,0.00,VWS V14.00,2013-11-06 21:15:00,
2013-11-06 13:20:00,36.1,31.5,30.40,East,101,0.0,1.0,83,0.00,,---,0.00,VWS V14.00,2013-11-06 21:20:00,
2013-11-06 13:25:00,36.0,31.4,30.40,East,101,0.0,0.0,83,0.00,,---,0.00,VWS V14.00,2013-11-06 21:25:00,
2013-11-06 13:30:00,36.0,31.6,30.40,East,101,0.0,1.0,84,0.00,,---,0.00,VWS V14.00,2013-11-06 21:30:00,
2013-11-06 13:35:00,36.1,31.7,30.40,East,101,2.0,2.0,84,0.00,,---,0.00,VWS V14.00,2013-11-06 21:35:00,
2013-11-06 13:40:00,36.0,31.4,30.41,East,101,0.0,1.0,83,0.00,,---,0.00,VWS V14.00,2013-11-06 21:40:00,
2013-11-06 13:45:00,35.9,31.2,30.40,East,101,0.0,1.0,83,0.00,,---,0.00,VWS V14.00,2013-11-06 21:45:00,
2013-11-06 13:50:00,35.8,31.1,30.40,East,101,0.0,0.0,83,0.00,,---,0.00,VWS V14.00,2013-11-06 21:50:00,
2013-11-06 13:55:00,35.8,31.1,30.40,East,101,0.0,0.0,83,0.00,,---,0.00,VWS V14.00,2013-11-06 21:55:00,
2013-11-06 14:00:00,36.0,31.6,30.40,East,101,0.0,0.0,84,0.00,,---,0.00,VWS V14.00,2013-11-06 22:00:00,
2013-11-06 14:05:00,36.1,31.5,30.40,East,101,0.0,1.0,83,0.00,,---,0.00,VWS V14.00,2013-11-06 22:05:00,
2013-11-06 14:10:00,36.2,31.5,30.40,East,101,0.0,0.0,83,0.00,,---,0.00,VWS V14.00,2013-11-06 22:10:00,
2013-11-06 14:15:00,36.2,31.5,30.40,East,101,0.0,1.0,83,0.00,,---,0.00,VWS V14.00,2013-11-06 22:15:00,
2013-11-06 14:20:00,36.3,31.6,30.40,East,101,0.0,1.0,83,0.00,,---,0.00,VWS V14.00,2013-11-06 22:20:00,
2013-11-06 14:25:00,36.2,31.2,30.40,East,101,0.0,0.0,82,0.00,,---,0.00,VWS V14.00,2013-11-06 22:25:00,
2013-11-06 14:30:00,36.2,31.2,30.40,East,101,0.0,0.0,82,0.00,,---,0.00,VWS V14.00,2013-11-06 22:30:00,
2013-11-06 14:35:00,36.3,31.6,30.40,East,101,0.0,0.0,83,0.00,,---,0.00,VWS V14.00,2013-11-06 22:35:00,
2013-11-06 14:40:00,36.4,31.7,30.40,East,101,0.0,0.0,83,0.00,,---,0.00,VWS V14.00,2013-11-06 22:40:00,
2013-11-06 14:45:00,36.4,31.4,30.40,East,101,0.0,0.0,82,0.00,,---,0.00,VWS V14.00,2013-11-06 22:45:00,
2013-11-06 14:50:00,36.4,31.4,30.40,East,101,0.0,1.0,82,0.00,,---,0.00,VWS V14.00,2013-11-06 22:50:00,
2013-11-06 14:55:00,36.4,31.4,30.40,East,101,0.0,0.0,82,0.00,,---,0.00,VWS V14.00,2013-11-06 22:55:00,
2013-11-06 15:00:00,36.4,31.4,30.40,East,101,0.0,0.0,82,0.00,,---,0.00,VWS V14.00,2013-11-06 23:00:00,
2013-11-06 15:05:00,36.3,31.0,30.40,East,101,0.0,0.0,81,0.00,,---,0.00,VWS V14.00,2013-11-06 23:05:00,
2013-11-06 15:10:00,36.3,31.3,30.40,East,101,0.0,0.0,82,0.00,,---,0.00,VWS V14.00,2013-11-06 23:10:00,
2013-11-06 15:15:00,36.3,31.3,30.40,East,101,0.0,0.0,82,0.00,,---,0.00,VWS V14.00,2013-11-06 23:15:00,
2013-11-06 15:20:00,36.2,30.9,30.40,East,101,0.0,1.0,81,0.00,,---,0.00,VWS V14.00,2013-11-06 23:20:00,
2013-11-06 15:25:00,36.1,31.1,30.40,East,101,2.0,2.0,82,0.00,,---,0.00,VWS V14.00,2013-11-06 23:25:00,
2013-11-06 15:30:00,36.0,31.0,30.40,East,101,0.0,1.0,82,0.00,,---,0.00,VWS V14.00,2013-11-06 23:30:00,
2013-11-06 15:35:00,35.9,30.6,30.40,East,101,0.0,1.0,81,0.00,,---,0.00,VWS V14.00,2013-11-06 23:35:00,
2013-11-06 15:40:00,35.9,31.0,30.40,East,101,0.0,2.0,82,0.00,,---,0.00,VWS V14.00,2013-11-06 23:40:00,
2013-11-06 15:45:00,35.9,31.0,30.40,East,101,0.0,1.0,82,0.00,,---,0.00,VWS V14.00,2013-11-06 23:45:00,
2013-11-06 15:50:00,35.8,30.9,30.40,East,101,0.0,0.0,82,0.00,,---,0.00,VWS V14.00,2013-11-06 23:50:00,
2013-11-06 15:55:00,35.8,30.9,30.40,East,101,0.0,0.0,82,0.00,,---,0.00,VWS V14.00,2013-11-06 23:55:00,
2013-11-06 16:00:00,35.8,30.9,30.40,East,101,0.0,1.0,82,0.00,,---,0.00,VWS V14.00,2013-11-07 00:00:00,
2013-11-06 16:05:00,35.7,30.8,30.40,East,101,0.0,0.0,82,0.00,,---,0.00,VWS V14.00,2013-11-07 00:05:00,
2013-11-06 16:10:00,35.7,30.8,30.40,East,101,0.0,1.0,82,0.00,,---,0.00,VWS V14.00,2013-11-07 00:10:00,
2013-11-06 16:15:00,35.7,31.0,30.40,East,101,0.0,0.0,83,0.00,,---,0.00,VWS V14.00,2013-11-07 00:15:00,
2013-11-06 16:20:00,35.7,31.4,30.40,East,101,0.0,0.0,84,0.00,,---,0.00,VWS V14.00,2013-11-07 00:20:00,
2013-11-06 16:25:00,35.6,31.2,30.40,East,101,0.0,0.0,84,0.00,,---,0.00,VWS V14.00,2013-11-07 00:25:00,
2013-11-06 16:30:00,35.6,31.2,30.40,East,101,0.0,0.0,84,0.00,,---,0.00,VWS V14.00,2013-11-07 00:30:00,
2013-11-06 16:35:00,35.5,31.1,30.40,East,101,0.0,0.0,84,0.00,,---,0.00,VWS V14.00,2013-11-07 00:35:00,
2013-11-06 16:40:00,35.4,31.4,30.41,East,101,0.0,0.0,85,0.00,,---,0.00,VWS V14.00,2013-11-07 00:40:00,
2013-11-06 16:45:00,35.3,31.2,30.41,East,101,0.0,0.0,85,0.00,,---,0.00,VWS V14.00,2013-11-07 00:45:00,
2013-11-06 16:50:00,35.2,31.1,30.40,East,101,0.0,0.0,85,0.00,,---,0.00,VWS V14.00,2013-11-07 00:50:00,
2013-11-06 16:55:00,35.1,31.0,30.40,East,101,0.0,0.0,85,0.00,,---,0.00,VWS V14.00,2013-11-07 00:55:00,
2013-11-06 17:00:00,35.1,31.0,30.40,East,101,0.0,0.0,85,0.00,,---,0.00,VWS V14.00,2013-11-07 01:00:00,
2013-11-06 17:05:00,35.0,31.2,30.40,East,101,0.0,0.0,86,0.00,,---,0.00,VWS V14.00,2013-11-07 01:05:00,
2013-11-06 17:10:00,35.0,31.2,30.40,East,101,0.0,0.0,86,0.00,,---,0.00,VWS V14.00,2013-11-07 01:10:00,
2013-11-06 17:15:00,34.9,31.1,30.41,East,101,0.0,0.0,86,0.00,,---,0.00,VWS V14.00,2013-11-07 01:15:00,
2013-11-06 17:20:00,34.8,31.0,30.41,East,101,0.0,0.0,86,0.00,,---,0.00,VWS V14.00,2013-11-07 01:20:00,
2013-11-06 17:25:00,34.8,31.0,30.40,East,101,0.0,0.0,86,0.00,,---,0.00,VWS V14.00,2013-11-07 01:25:00,
2013-11-06 17:30:00,34.7,31.2,30.40,East,101,0.0,0.0,87,0.00,,---,0.00,VWS V14.00,2013-11-07 01:30:00,
2013-11-06 17:35:00,34.7,31.2,30.40,East,101,0.0,0.0,87,0.00,,---,0.00,VWS V14.00,2013-11-07 01:35:00,
2013-11-06 17:40:00,34.7,31.2,30.40,East,101,0.0,0.0,87,0.00,,---,0.00,VWS V14.00,2013-11-07 01:40:00,
2013-11-06 17:45:00,34.6,31.1,30.41,East,101,0.0,0.0,87,0.00,,---,0.00,VWS V14.00,2013-11-07 01:45:00,
2013-11-06 17:50:00,34.6,31.1,30.41,East,101,0.0,0.0,87,0.00,,---,0.00,VWS V14.00,2013-11-07 01:50:00,
2013-11-06 17:55:00,34.5,31.0,30.41,East,101,0.0,0.0,87,0.00,,---,0.00,VWS V14.00,2013-11-07 01:55:00,
2013-11-06 18:00:00,34.4,30.9,30.41,East,101,0.0,0.0,87,0.00,,---,0.00,VWS V14.00,2013-11-07 02:00:00,
2013-11-06 18:05:00,34.4,31.2,30.41,East,101,0.0,0.0,88,0.00,,---,0.00,VWS V14.00,2013-11-07 02:05:00,
2013-11-06 18:10:00,34.4,31.2,30.41,East,101,0.0,0.0,88,0.00,,---,0.00,VWS V14.00,2013-11-07 02:10:00,
2013-11-06 18:15:00,34.4,31.2,30.41,East,101,0.0,0.0,88,0.00,,---,0.00,VWS V14.00,2013-11-07 02:15:00,
2013-11-06 18:20:00,34.4,31.2,30.41,East,101,0.0,0.0,88,0.00,,---,0.00,VWS V14.00,2013-11-07 02:20:00,
2013-11-06 18:25:00,34.4,31.2,30.41,East,101,0.0,0.0,88,0.00,,---,0.00,VWS V14.00,2013-11-07 02:25:00,
2013-11-06 18:30:00,34.4,31.2,30.41,East,101,0.0,0.0,88,0.00,,---,0.00,VWS V14.00,2013-11-07 02:30:00,
2013-11-06 18:35:00,34.4,31.2,30.41,East,101,0.0,0.0,88,0.00,,---,0.00,VWS V14.00,2013-11-07 02:35:00,
2013-11-06 18:40:00,34.4,31.2,30.40,East,101,0.0,0.0,88,0.00,,---,0.00,VWS V14.00,2013-11-07 02:40:00,
2013-11-06 18:45:00,34.4,31.2,30.41,East,101,0.0,0.0,88,0.00,,---,0.00,VWS V14.00,2013-11-07 02:45:00,
2013-11-06 18:50:00,34.3,31.1,30.40,East,101,0.0,0.0,88,0.00,,---,0.00,VWS V14.00,2013-11-07 02:50:00,
2013-11-06 18:55:00,34.3,31.1,30.41,East,101,0.0,0.0,88,0.00,,---,0.00,VWS V14.00,2013-11-07 02:55:00,
2013-11-06 19:00:00,34.3,31.1,30.41,East,101,0.0,0.0,88,0.00,,---,0.00,VWS V14.00,2013-11-07 03:00:00,
2013-11-06 19:05:00,34.3,31.1,30.41,East,101,0.0,0.0,88,0.00,,---,0.00,VWS V14.00,2013-11-07 03:05:00,
2013-11-06 19:10:00,34.3,31.4,30.40,East,101,0.0,0.0,89,0.00,,---,0.00,VWS V14.00,2013-11-07 03:10:00,
2013-11-06 19:15:00,34.2,31.3,30.40,East,101,0.0,0.0,89,0.00,,---,0.00,VWS V14.00,2013-11-07 03:15:00,
2013-11-06 19:20:00,34.2,31.3,30.40,East,101,0.0,0.0,89,0.00,,---,0.00,VWS V14.00,2013-11-07 03:20:00,
2013-11-06 19:25:00,34.2,31.3,30.40,East,101,0.0,0.0,89,0.00,,---,0.00,VWS V14.00,2013-11-07 03:25:00,
2013-11-06 19:30:00,34.2,31.3,30.39,East,101,0.0,0.0,89,0.00,,---,0.00,VWS V14.00,2013-11-07 03:30:00,
2013-11-06 19:35:00,34.2,31.3,30.39,East,101,0.0,0.0,89,0.00,,---,0.00,VWS V14.00,2013-11-07 03:35:00,
2013-11-06 19:40:00,34.2,31.3,30.39,East,101,0.0,0.0,89,0.00,,---,0.00,VWS V14.00,2013-11-07 03:40:00,
2013-11-06 19:45:00,34.2,31.3,30.39,East,101,0.0,0.0,89,0.00,,---,0.00,VWS V14.00,2013-11-07 03:45:00,
2013-11-06 19:50:00,34.2,31.3,30.40,East,101,1.0,1.0,89,0.00,,---,0.00,VWS V14.00,2013-11-07 03:50:00,
2013-11-06 19:55:00,34.1,31.2,30.40,East,101,0.0,1.0,89,0.00,,---,0.00,VWS V14.00,2013-11-07 03:55:00,
2013-11-06 20:00:00,34.1,31.2,30.39,East,101,0.0,0.0,89,0.00,,---,0.00,VWS V14.00,2013-11-07 04:00:00,
2013-11-06 20:05:00,34.1,31.2,30.40,East,101,0.0,0.0,89,0.00,,---,0.00,VWS V14.00,2013-11-07 04:05:00,
2013-11-06 20:10:00,34.0,31.1,30.39,East,101,0.0,0.0,89,0.00,,---,0.00,VWS V14.00,2013-11-07 04:10:00,
2013-11-06 20:15:00,34.0,31.1,30.39,East,101,0.0,0.0,89,0.00,,---,0.00,VWS V14.00,2013-11-07 04:15:00,
2013-11-06 20:20:00,34.0,31.1,30.39,East,101,0.0,0.0,89,0.00,,---,0.00,VWS V14.00,2013-11-07 04:20:00,
2013-11-06 20:25:00,34.0,31.1,30.39,East,101,0.0,0.0,89,0.00,,---,0.00,VWS V14.00,2013-11-07 04:25:00,
2013-11-06 20:30:00,34.0,31.1,30.39,East,101,0.0,0.0,89,0.00,,---,0.00,VWS V14.00,2013-11-07 04:30:00,
2013-11-06 20:35:00,34.0,31.1,30.39,East,101,0.0,0.0,89,0.00,,---,0.00,VWS V14.00,2013-11-07 04:35:00,
2013-11-06 20:40:00,34.0,31.1,30.39,East,101,0.0,0.0,89,0.00,,---,0.00,VWS V14.00,2013-11-07 04:40:00,
2013-11-06 20:45:00,34.0,31.1,30.39,East,101,0.0,0.0,89,0.00,,---,0.00,VWS V14.00,2013-11-07 04:45:00,
2013-11-06 20:50:00,34.0,31.1,30.39,East,101,0.0,0.0,89,0.00,,---,0.00,VWS V14.00,2013-11-07 04:50:00,
2013-11-06 20:55:00,33.9,31.3,30.39,East,101,0.0,0.0,90,0.00,,---,0.00,VWS V14.00,2013-11-07 04:55:00,
2013-11-06 21:00:00,33.9,31.3,30.39,East,101,0.0,0.0,90,0.00,,---,0.00,VWS V14.00,2013-11-07 05:00:00,
2013-11-06 21:01:00,33.9,31.3,30.39,East,101,0.0,0.0,90,0.00,,---,0.00,VWS V14.00,2013-11-07 05:01:00,
2013-11-06 21:06:00,33.9,31.3,30.39,East,101,0.0,0.0,90,0.00,,---,0.00,VWS V14.00,2013-11-07 05:06:00,
2013-11-06 21:11:00,33.9,31.3,30.39,East,101,0.0,0.0,90,0.00,,---,0.00,VWS V14.00,2013-11-07 05:11:00,
2013-11-06 21:16:00,33.9,31.3,30.39,East,101,0.0,0.0,90,0.00,,---,0.00,VWS V14.00,2013-11-07 05:16:00,
2013-11-06 21:21:00,33.8,31.2,30.39,East,101,0.0,0.0,90,0.00,,---,0.00,VWS V14.00,2013-11-07 05:21:00,
2013-11-06 21:26:00,33.8,31.2,30.39,East,101,0.0,0.0,90,0.00,,---,0.00,VWS V14.00,2013-11-07 05:26:00,
2013-11-06 21:31:00,33.7,31.1,30.39,East,101,0.0,0.0,90,0.00,,---,0.00,VWS V14.00,2013-11-07 05:31:00,
2013-11-06 21:36:00,33.7,31.1,30.39,East,101,0.0,0.0,90,0.00,,---,0.00,VWS V14.00,2013-11-07 05:36:00,
2013-11-06 21:41:00,33.7,31.1,30.39,East,101,0.0,0.0,90,0.00,,---,0.00,VWS V14.00,2013-11-07 05:41:00,
2013-11-06 21:46:00,33.7,31.1,30.39,East,101,0.0,0.0,90,0.00,,---,0.00,VWS V14.00,2013-11-07 05:46:00,
2013-11-06 21:51:00,33.5,30.9,30.38,East,101,0.0,0.0,90,0.00,,---,0.00,VWS V14.00,2013-11-07 05:51:00,
2013-11-06 21:56:00,33.5,30.9,30.38,East,101,0.0,0.0,90,0.00,,---,0.00,VWS V14.00,2013-11-07 05:56:00,
2013-11-06 22:01:00,33.5,30.9,30.38,East,101,0.0,0.0,90,0.00,,---,0.00,VWS V14.00,2013-11-07 06:01:00,
2013-11-06 22:06:00,33.5,30.9,30.37,East,101,0.0,0.0,90,0.00,,---,0.00,VWS V14.00,2013-11-07 06:06:00,
2013-11-06 22:11:00,33.5,30.9,30.37,East,101,0.0,0.0,90,0.00,,---,0.00,VWS V14.00,2013-11-07 06:11:00,
2013-11-06 22:16:00,33.5,30.9,30.37,East,101,0.0,0.0,90,0.00,,---,0.00,VWS V14.00,2013-11-07 06:16:00,
2013-11-06 22:21:00,33.4,30.8,30.38,East,101,0.0,0.0,90,0.00,,---,0.00,VWS V14.00,2013-11-07 06:21:00,
2013-11-06 22:25:00,33.3,30.7,30.37,East,101,0.0,0.0,90,0.00,,---,0.00,VWS V14.00,2013-11-07 06:25:00,
2013-11-06 22:30:00,33.2,30.6,30.36,East,101,0.0,0.0,90,0.00,,---,0.00,VWS V14.00,2013-11-07 06:30:00,
2013-11-06 22:35:00,33.2,30.6,30.36,East,101,0.0,0.0,90,0.00,,---,0.00,VWS V14.00,2013-11-07 06:35:00,
2013-11-06 22:40:00,33.2,30.6,30.36,East,101,0.0,0.0,90,0.00,,---,0.00,VWS V14.00,2013-11-07 06:40:00,
2013-11-06 22:45:00,33.1,30.5,30.36,East,101,0.0,0.0,90,0.00,,---,0.00,VWS V14.00,2013-11-07 06:45:00,
2013-11-06 22:50:00,33.0,30.4,30.36,East,101,0.0,0.0,90,0.00,,---,0.00,VWS V14.00,2013-11-07 06:50:00,
2013-11-06 22:55:00,33.0,30.4,30.36,East,101,0.0,0.0,90,0.00,,---,0.00,VWS V14.00,2013-11-07 06:55:00,
2013-11-06 23:00:00,33.0,30.7,30.36,East,101,0.0,0.0,91,0.00,,---,0.00,VWS V14.00,2013-11-07 07:00:00,
2013-11-06 23:05:00,32.9,30.6,30.35,East,101,0.0,0.0,91,0.00,,---,0.00,VWS V14.00,2013-11-07 07:05:00,
2013-11-06 23:10:00,32.9,30.6,30.35,East,101,0.0,0.0,91,0.00,,---,0.00,VWS V14.00,2013-11-07 07:10:00,
2013-11-06 23:15:00,32.9,30.6,30.35,East,101,0.0,0.0,91,0.00,,---,0.00,VWS V14.00,2013-11-07 07:15:00,
2013-11-06 23:20:00,32.9,30.6,30.34,East,101,0.0,0.0,91,0.00,,---,0.00,VWS V14.00,2013-11-07 07:20:00,
2013-11-06 23:25:00,32.9,30.6,30.34,East,101,0.0,0.0,91,0.00,,---,0.00,VWS V14.00,2013-11-07 07:25:00,
2013-11-06 23:30:00,32.8,30.5,30.34,East,101,0.0,0.0,91,0.00,,---,0.00,VWS V14.00,2013-11-07 07:30:00,
2013-11-06 23:35:00,32.8,30.5,30.34,East,101,0.0,0.0,91,0.00,,---,0.00,VWS V14.00,2013-11-07 07:35:00,
2013-11-06 23:40:00,32.8,30.5,30.33,East,101,0.0,0.0,91,0.00,,---,0.00,VWS V14.00,2013-11-07 07:40:00,
2013-11-06 23:45:00,32.8,30.5,30.33,East,101,0.0,0.0,91,0.00,,---,0.00,VWS V14.00,2013-11-07 07:45:00,
2013-11-06 23:50:00,32.8,30.5,30.33,East,101,0.0,0.0,91,0.00,,---,0.00,VWS V14.00,2013-11-07 07:50:00,
2013-11-06 23:55:00,32.8,30.5,30.33,East,101,0.0,0.0,91,0.00,,---,0.00,VWS V14.00,2013-11-07 07:55:00,